sensor_id;sensor_type;location;lat;lon;timestamp;temperature;humidity
19930;DHT22;10127;47.780;9.606;2022-12-07T00:01:18;4.80;99.90
19930;DHT22;10127;47.780;9.606;2022-12-07T00:03:45;4.80;99.90
19930;DHT22;10127;47.780;9.606;2022-12-07T00:06:13;4.90;99.90
19930;DHT22;10127;47.780;9.606;2022-12-07T00:08:39;4.80;99.90
19930;DHT22;10127;47.780;9.606;2022-12-07T00:11:20;4.80;99.90
19930;DHT22;10127;47.780;9.606;2022-12-07T00:13:46;4.80;99.90
19930;DHT22;10127;47.780;9.606;2022-12-07T00:16:17;4.90;99.90
19930;DHT22;10127;47.780;9.606;2022-12-07T00:18:44;5.00;99.90
19930;DHT22;10127;47.780;9.606;2022-12-07T00:21:12;5.00;99.90
19930;DHT22;10127;47.780;9.606;2022-12-07T00:23:39;5.00;99.90
19930;DHT22;10127;47.780;9.606;2022-12-07T00:26:10;4.90;99.90
19930;DHT22;10127;47.780;9.606;2022-12-07T00:28:37;4.90;99.90
19930;DHT22;10127;47.780;9.606;2022-12-07T00:31:04;5.00;99.90
19930;DHT22;10127;47.780;9.606;2022-12-07T00:33:31;5.00;99.90
19930;DHT22;10127;47.780;9.606;2022-12-07T00:35:57;5.10;99.90
19930;DHT22;10127;47.780;9.606;2022-12-07T00:38:23;5.00;99.90
19930;DHT22;10127;47.780;9.606;2022-12-07T00:40:57;5.00;99.90
19930;DHT22;10127;47.780;9.606;2022-12-07T00:43:23;5.00;99.90
19930;DHT22;10127;47.780;9.606;2022-12-07T00:45:49;4.90;99.90
19930;DHT22;10127;47.780;9.606;2022-12-07T00:48:14;4.80;99.90
19930;DHT22;10127;47.780;9.606;2022-12-07T00:50:40;4.80;99.90
19930;DHT22;10127;47.780;9.606;2022-12-07T00:53:05;4.80;99.90
19930;DHT22;10127;47.780;9.606;2022-12-07T00:55:35;4.80;99.90
19930;DHT22;10127;47.780;9.606;2022-12-07T00:58:01;4.80;99.90
19930;DHT22;10127;47.780;9.606;2022-12-07T01:00:26;4.80;99.90
19930;DHT22;10127;47.780;9.606;2022-12-07T01:02:52;4.80;99.90
19930;DHT22;10127;47.780;9.606;2022-12-07T01:05:18;4.80;99.90
19930;DHT22;10127;47.780;9.606;2022-12-07T01:07:44;4.70;99.90
19930;DHT22;10127;47.780;9.606;2022-12-07T01:10:10;4.70;99.90
19930;DHT22;10127;47.780;9.606;2022-12-07T01:12:35;4.80;99.90
19930;DHT22;10127;47.780;9.606;2022-12-07T01:15:01;4.70;99.90
19930;DHT22;10127;47.780;9.606;2022-12-07T01:17:28;4.70;99.90
19930;DHT22;10127;47.780;9.606;2022-12-07T01:19:53;4.70;99.90
19930;DHT22;10127;47.780;9.606;2022-12-07T01:22:19;4.80;99.90
19930;DHT22;10127;47.780;9.606;2022-12-07T01:24:45;4.80;99.90
19930;DHT22;10127;47.780;9.606;2022-12-07T01:27:12;4.80;99.90
19930;DHT22;10127;47.780;9.606;2022-12-07T01:29:38;4.70;99.90
19930;DHT22;10127;47.780;9.606;2022-12-07T01:32:05;4.70;99.90
19930;DHT22;10127;47.780;9.606;2022-12-07T01:34:30;4.70;99.90
19930;DHT22;10127;47.780;9.606;2022-12-07T01:36:56;4.80;99.90
19930;DHT22;10127;47.780;9.606;2022-12-07T01:39:22;4.80;99.90
19930;DHT22;10127;47.780;9.606;2022-12-07T01:41:47;4.80;99.90
19930;DHT22;10127;47.780;9.606;2022-12-07T01:44:22;4.90;99.90
19930;DHT22;10127;47.780;9.606;2022-12-07T01:49:41;4.90;99.90
19930;DHT22;10127;47.780;9.606;2022-12-07T01:52:25;5.00;99.90
19930;DHT22;10127;47.780;9.606;2022-12-07T01:54:56;5.00;99.90
19930;DHT22;10127;47.780;9.606;2022-12-07T01:57:22;4.90;99.90
19930;DHT22;10127;47.780;9.606;2022-12-07T01:59:50;5.10;99.90
19930;DHT22;10127;47.780;9.606;2022-12-07T02:02:33;5.20;99.90
19930;DHT22;10127;47.780;9.606;2022-12-07T02:05:00;5.10;99.90
19930;DHT22;10127;47.780;9.606;2022-12-07T02:07:27;5.10;99.90
19930;DHT22;10127;47.780;9.606;2022-12-07T02:09:53;5.10;99.90
19930;DHT22;10127;47.780;9.606;2022-12-07T02:12:19;5.10;99.90
19930;DHT22;10127;47.780;9.606;2022-12-07T02:14:45;5.00;99.90
19930;DHT22;10127;47.780;9.606;2022-12-07T02:17:32;5.00;99.90
19930;DHT22;10127;47.780;9.606;2022-12-07T02:26:32;5.00;99.90
19930;DHT22;10127;47.780;9.606;2022-12-07T02:29:14;4.90;99.90
19930;DHT22;10127;47.780;9.606;2022-12-07T02:37:34;4.80;99.90
19930;DHT22;10127;47.780;9.606;2022-12-07T02:40:07;4.80;99.90
19930;DHT22;10127;47.780;9.606;2022-12-07T02:42:38;4.90;99.90
19930;DHT22;10127;47.780;9.606;2022-12-07T02:45:06;5.00;99.90
19930;DHT22;10127;47.780;9.606;2022-12-07T02:47:33;4.90;99.90
19930;DHT22;10127;47.780;9.606;2022-12-07T02:49:59;5.00;99.90
19930;DHT22;10127;47.780;9.606;2022-12-07T03:13:12;5.10;99.90
19930;DHT22;10127;47.780;9.606;2022-12-07T03:18:30;5.10;99.90
19930;DHT22;10127;47.780;9.606;2022-12-07T03:21:01;5.10;99.90
19930;DHT22;10127;47.780;9.606;2022-12-07T03:23:28;5.10;99.90
19930;DHT22;10127;47.780;9.606;2022-12-07T03:25:58;5.10;99.90
19930;DHT22;10127;47.780;9.606;2022-12-07T03:28:28;5.10;99.90
19930;DHT22;10127;47.780;9.606;2022-12-07T03:33:36;5.20;99.90
19930;DHT22;10127;47.780;9.606;2022-12-07T03:36:08;5.20;99.90
19930;DHT22;10127;47.780;9.606;2022-12-07T03:38:50;5.20;99.90
19930;DHT22;10127;47.780;9.606;2022-12-07T03:41:25;5.30;99.90
19930;DHT22;10127;47.780;9.606;2022-12-07T03:43:53;5.30;99.90
19930;DHT22;10127;47.780;9.606;2022-12-07T03:46:40;5.20;99.90
19930;DHT22;10127;47.780;9.606;2022-12-07T03:49:19;5.10;99.90
19930;DHT22;10127;47.780;9.606;2022-12-07T03:52:06;5.20;99.90
19930;DHT22;10127;47.780;9.606;2022-12-07T03:54:41;5.20;99.90
19930;DHT22;10127;47.780;9.606;2022-12-07T03:57:09;5.20;99.90
19930;DHT22;10127;47.780;9.606;2022-12-07T03:59:36;5.10;99.90
19930;DHT22;10127;47.780;9.606;2022-12-07T04:02:06;5.20;99.90
19930;DHT22;10127;47.780;9.606;2022-12-07T04:04:31;5.40;99.90
19930;DHT22;10127;47.780;9.606;2022-12-07T04:06:57;5.40;99.90
19930;DHT22;10127;47.780;9.606;2022-12-07T04:09:23;5.30;99.90
19930;DHT22;10127;47.780;9.606;2022-12-07T04:11:48;5.20;99.90
19930;DHT22;10127;47.780;9.606;2022-12-07T04:14:14;5.20;99.90
19930;DHT22;10127;47.780;9.606;2022-12-07T04:16:47;5.20;99.90
19930;DHT22;10127;47.780;9.606;2022-12-07T04:19:13;5.20;99.90
19930;DHT22;10127;47.780;9.606;2022-12-07T04:21:39;5.20;99.90
19930;DHT22;10127;47.780;9.606;2022-12-07T04:24:04;5.00;99.90
19930;DHT22;10127;47.780;9.606;2022-12-07T04:26:30;4.90;99.90
19930;DHT22;10127;47.780;9.606;2022-12-07T04:28:56;4.80;99.90
19930;DHT22;10127;47.780;9.606;2022-12-07T04:31:21;4.90;99.90
19930;DHT22;10127;47.780;9.606;2022-12-07T04:33:47;5.00;99.90
19930;DHT22;10127;47.780;9.606;2022-12-07T04:36:13;5.10;99.90
19930;DHT22;10127;47.780;9.606;2022-12-07T04:38:38;5.10;99.90
19930;DHT22;10127;47.780;9.606;2022-12-07T04:41:08;5.10;99.90
19930;DHT22;10127;47.780;9.606;2022-12-07T04:43:35;5.00;99.90
19930;DHT22;10127;47.780;9.606;2022-12-07T04:46:01;5.10;99.90
19930;DHT22;10127;47.780;9.606;2022-12-07T04:48:27;5.10;99.90
19930;DHT22;10127;47.780;9.606;2022-12-07T04:50:52;5.10;99.90
19930;DHT22;10127;47.780;9.606;2022-12-07T04:53:18;5.00;99.90
19930;DHT22;10127;47.780;9.606;2022-12-07T04:55:45;5.00;99.90
19930;DHT22;10127;47.780;9.606;2022-12-07T04:58:12;5.00;99.90
19930;DHT22;10127;47.780;9.606;2022-12-07T05:00:38;5.10;99.90
19930;DHT22;10127;47.780;9.606;2022-12-07T05:03:04;5.20;99.90
19930;DHT22;10127;47.780;9.606;2022-12-07T05:05:30;5.20;99.90
19930;DHT22;10127;47.780;9.606;2022-12-07T05:07:55;5.20;99.90
19930;DHT22;10127;47.780;9.606;2022-12-07T05:10:21;5.20;99.90
19930;DHT22;10127;47.780;9.606;2022-12-07T05:12:47;5.20;99.90
19930;DHT22;10127;47.780;9.606;2022-12-07T05:15:14;5.00;99.90
19930;DHT22;10127;47.780;9.606;2022-12-07T05:17:39;5.00;99.90
19930;DHT22;10127;47.780;9.606;2022-12-07T05:20:06;5.00;99.90
19930;DHT22;10127;47.780;9.606;2022-12-07T05:22:31;5.00;99.90
19930;DHT22;10127;47.780;9.606;2022-12-07T05:24:57;5.00;99.90
19930;DHT22;10127;47.780;9.606;2022-12-07T05:27:23;5.00;99.90
19930;DHT22;10127;47.780;9.606;2022-12-07T05:29:50;5.10;99.90
19930;DHT22;10127;47.780;9.606;2022-12-07T05:32:16;5.10;99.90
19930;DHT22;10127;47.780;9.606;2022-12-07T05:34:41;4.80;99.90
19930;DHT22;10127;47.780;9.606;2022-12-07T05:37:07;4.70;99.90
19930;DHT22;10127;47.780;9.606;2022-12-07T05:39:32;4.60;99.90
19930;DHT22;10127;47.780;9.606;2022-12-07T05:41:58;4.70;99.90
19930;DHT22;10127;47.780;9.606;2022-12-07T05:44:39;4.60;99.90
19930;DHT22;10127;47.780;9.606;2022-12-07T05:47:06;4.60;99.90
19930;DHT22;10127;47.780;9.606;2022-12-07T05:49:31;4.60;99.90
19930;DHT22;10127;47.780;9.606;2022-12-07T05:51:57;4.70;99.90
19930;DHT22;10127;47.780;9.606;2022-12-07T05:54:23;4.80;99.90
19930;DHT22;10127;47.780;9.606;2022-12-07T05:56:48;4.90;99.90
19930;DHT22;10127;47.780;9.606;2022-12-07T05:59:14;4.90;99.90
19930;DHT22;10127;47.780;9.606;2022-12-07T06:01:58;5.00;99.90
19930;DHT22;10127;47.780;9.606;2022-12-07T06:04:25;5.00;99.90
19930;DHT22;10127;47.780;9.606;2022-12-07T06:06:52;4.90;99.90
19930;DHT22;10127;47.780;9.606;2022-12-07T06:09:18;4.80;99.90
19930;DHT22;10127;47.780;9.606;2022-12-07T06:11:44;4.80;99.90
19930;DHT22;10127;47.780;9.606;2022-12-07T06:14:28;4.90;99.90
19930;DHT22;10127;47.780;9.606;2022-12-07T06:16:54;5.00;99.90
19930;DHT22;10127;47.780;9.606;2022-12-07T06:19:19;5.00;99.90
19930;DHT22;10127;47.780;9.606;2022-12-07T06:21:45;5.00;99.90
19930;DHT22;10127;47.780;9.606;2022-12-07T06:24:15;5.10;99.90
19930;DHT22;10127;47.780;9.606;2022-12-07T06:26:41;5.00;99.90
19930;DHT22;10127;47.780;9.606;2022-12-07T06:29:07;4.90;99.90
19930;DHT22;10127;47.780;9.606;2022-12-07T06:31:33;5.00;99.90
19930;DHT22;10127;47.780;9.606;2022-12-07T06:34:02;5.10;99.90
19930;DHT22;10127;47.780;9.606;2022-12-07T06:36:28;5.10;99.90
19930;DHT22;10127;47.780;9.606;2022-12-07T06:38:54;5.20;99.90
19930;DHT22;10127;47.780;9.606;2022-12-07T06:41:20;5.10;99.90
19930;DHT22;10127;47.780;9.606;2022-12-07T06:43:46;5.10;99.90
19930;DHT22;10127;47.780;9.606;2022-12-07T06:46:12;4.90;99.90
19930;DHT22;10127;47.780;9.606;2022-12-07T06:48:37;4.90;99.90
19930;DHT22;10127;47.780;9.606;2022-12-07T06:51:03;5.00;99.90
19930;DHT22;10127;47.780;9.606;2022-12-07T06:53:29;5.10;99.90
19930;DHT22;10127;47.780;9.606;2022-12-07T06:55:54;5.10;99.90
19930;DHT22;10127;47.780;9.606;2022-12-07T06:58:20;5.10;99.90
19930;DHT22;10127;47.780;9.606;2022-12-07T07:00:48;5.10;99.90
19930;DHT22;10127;47.780;9.606;2022-12-07T07:03:13;5.20;99.90
19930;DHT22;10127;47.780;9.606;2022-12-07T07:05:39;5.20;99.90
19930;DHT22;10127;47.780;9.606;2022-12-07T07:08:05;5.20;99.90
19930;DHT22;10127;47.780;9.606;2022-12-07T07:10:30;5.10;99.90
19930;DHT22;10127;47.780;9.606;2022-12-07T07:12:56;4.90;99.90
19930;DHT22;10127;47.780;9.606;2022-12-07T07:15:22;4.70;99.90
19930;DHT22;10127;47.780;9.606;2022-12-07T07:17:47;4.70;99.90
19930;DHT22;10127;47.780;9.606;2022-12-07T07:20:13;4.70;99.90
19930;DHT22;10127;47.780;9.606;2022-12-07T07:22:38;4.70;99.90
19930;DHT22;10127;47.780;9.606;2022-12-07T07:25:04;4.60;99.90
19930;DHT22;10127;47.780;9.606;2022-12-07T07:27:30;4.60;99.90
19930;DHT22;10127;47.780;9.606;2022-12-07T07:29:55;4.60;99.90
19930;DHT22;10127;47.780;9.606;2022-12-07T07:32:21;4.70;99.90
19930;DHT22;10127;47.780;9.606;2022-12-07T07:34:49;4.70;99.90
19930;DHT22;10127;47.780;9.606;2022-12-07T07:37:21;4.70;99.90
19930;DHT22;10127;47.780;9.606;2022-12-07T07:39:47;4.80;99.90
19930;DHT22;10127;47.780;9.606;2022-12-07T07:42:12;5.00;99.90
19930;DHT22;10127;47.780;9.606;2022-12-07T07:44:38;5.10;99.90
19930;DHT22;10127;47.780;9.606;2022-12-07T07:47:03;5.10;99.90
19930;DHT22;10127;47.780;9.606;2022-12-07T07:49:29;5.00;99.90
19930;DHT22;10127;47.780;9.606;2022-12-07T07:51:55;5.10;99.90
19930;DHT22;10127;47.780;9.606;2022-12-07T07:54:20;5.10;99.90
19930;DHT22;10127;47.780;9.606;2022-12-07T07:56:46;5.10;99.90
19930;DHT22;10127;47.780;9.606;2022-12-07T07:59:12;5.10;99.90
19930;DHT22;10127;47.780;9.606;2022-12-07T08:01:37;5.20;99.90
19930;DHT22;10127;47.780;9.606;2022-12-07T08:04:03;5.20;99.90
19930;DHT22;10127;47.780;9.606;2022-12-07T08:06:28;5.30;99.90
19930;DHT22;10127;47.780;9.606;2022-12-07T08:08:54;5.40;99.90
19930;DHT22;10127;47.780;9.606;2022-12-07T08:11:19;5.40;99.90
19930;DHT22;10127;47.780;9.606;2022-12-07T08:13:46;5.30;99.90
19930;DHT22;10127;47.780;9.606;2022-12-07T08:16:15;5.40;99.90
19930;DHT22;10127;47.780;9.606;2022-12-07T08:18:41;5.30;99.90
19930;DHT22;10127;47.780;9.606;2022-12-07T08:21:09;5.20;99.90
19930;DHT22;10127;47.780;9.606;2022-12-07T08:23:35;5.30;99.90
19930;DHT22;10127;47.780;9.606;2022-12-07T08:26:06;5.40;99.90
19930;DHT22;10127;47.780;9.606;2022-12-07T08:28:32;5.50;99.90
19930;DHT22;10127;47.780;9.606;2022-12-07T08:31:11;5.60;99.90
19930;DHT22;10127;47.780;9.606;2022-12-07T08:33:37;5.80;99.90
19930;DHT22;10127;47.780;9.606;2022-12-07T08:36:05;5.70;99.90
19930;DHT22;10127;47.780;9.606;2022-12-07T08:38:31;5.70;99.90
19930;DHT22;10127;47.780;9.606;2022-12-07T08:40:58;5.70;99.90
19930;DHT22;10127;47.780;9.606;2022-12-07T08:43:24;5.60;99.90
19930;DHT22;10127;47.780;9.606;2022-12-07T08:48:52;5.70;99.90
19930;DHT22;10127;47.780;9.606;2022-12-07T08:51:19;5.80;99.90
19930;DHT22;10127;47.780;9.606;2022-12-07T08:53:45;5.80;99.90
19930;DHT22;10127;47.780;9.606;2022-12-07T08:56:11;5.90;99.90
19930;DHT22;10127;47.780;9.606;2022-12-07T08:58:37;5.80;99.90
19930;DHT22;10127;47.780;9.606;2022-12-07T09:01:04;5.80;99.90
19930;DHT22;10127;47.780;9.606;2022-12-07T09:03:30;5.80;99.90
19930;DHT22;10127;47.780;9.606;2022-12-07T09:05:57;5.80;99.90
19930;DHT22;10127;47.780;9.606;2022-12-07T09:08:28;5.60;99.90
19930;DHT22;10127;47.780;9.606;2022-12-07T09:10:56;5.50;99.90
19930;DHT22;10127;47.780;9.606;2022-12-07T09:13:22;5.50;99.90
19930;DHT22;10127;47.780;9.606;2022-12-07T09:15:48;5.30;99.90
19930;DHT22;10127;47.780;9.606;2022-12-07T09:18:14;5.40;99.90
19930;DHT22;10127;47.780;9.606;2022-12-07T09:20:39;5.30;99.90
19930;DHT22;10127;47.780;9.606;2022-12-07T09:23:06;5.40;99.90
19930;DHT22;10127;47.780;9.606;2022-12-07T09:25:33;5.50;99.90
19930;DHT22;10127;47.780;9.606;2022-12-07T09:27:59;5.40;99.90
19930;DHT22;10127;47.780;9.606;2022-12-07T09:30:26;5.60;99.90
19930;DHT22;10127;47.780;9.606;2022-12-07T09:32:56;5.70;99.90
19930;DHT22;10127;47.780;9.606;2022-12-07T09:35:22;5.90;99.90
19930;DHT22;10127;47.780;9.606;2022-12-07T09:37:48;5.80;99.90
19930;DHT22;10127;47.780;9.606;2022-12-07T09:40:15;5.60;99.90
19930;DHT22;10127;47.780;9.606;2022-12-07T09:42:44;5.80;99.90
19930;DHT22;10127;47.780;9.606;2022-12-07T09:45:36;5.90;99.90
19930;DHT22;10127;47.780;9.606;2022-12-07T09:48:03;5.90;99.90
19930;DHT22;10127;47.780;9.606;2022-12-07T09:50:29;5.80;99.90
19930;DHT22;10127;47.780;9.606;2022-12-07T09:53:08;5.80;99.90
19930;DHT22;10127;47.780;9.606;2022-12-07T09:55:36;5.90;99.90
19930;DHT22;10127;47.780;9.606;2022-12-07T09:58:02;6.00;99.90
19930;DHT22;10127;47.780;9.606;2022-12-07T10:00:29;6.10;99.90
19930;DHT22;10127;47.780;9.606;2022-12-07T10:02:57;6.10;99.90
19930;DHT22;10127;47.780;9.606;2022-12-07T10:05:47;6.10;99.90
19930;DHT22;10127;47.780;9.606;2022-12-07T10:08:14;6.00;99.90
19930;DHT22;10127;47.780;9.606;2022-12-07T10:10:43;6.00;99.90
19930;DHT22;10127;47.780;9.606;2022-12-07T10:13:17;6.10;99.90
19930;DHT22;10127;47.780;9.606;2022-12-07T10:15:55;6.20;99.90
19930;DHT22;10127;47.780;9.606;2022-12-07T10:23:33;6.30;99.90
19930;DHT22;10127;47.780;9.606;2022-12-07T10:25:59;6.40;99.90
19930;DHT22;10127;47.780;9.606;2022-12-07T10:28:34;6.40;99.90
19930;DHT22;10127;47.780;9.606;2022-12-07T10:31:04;6.50;99.90
19930;DHT22;10127;47.780;9.606;2022-12-07T10:33:58;6.40;99.90
19930;DHT22;10127;47.780;9.606;2022-12-07T10:36:37;6.50;99.90
19930;DHT22;10127;47.780;9.606;2022-12-07T10:39:14;6.60;99.90
19930;DHT22;10127;47.780;9.606;2022-12-07T10:42:22;6.40;99.90
19930;DHT22;10127;47.780;9.606;2022-12-07T10:44:50;6.40;99.90
19930;DHT22;10127;47.780;9.606;2022-12-07T10:47:38;6.50;99.90
19930;DHT22;10127;47.780;9.606;2022-12-07T11:01:25;6.30;99.90
19930;DHT22;10127;47.780;9.606;2022-12-07T11:04:18;6.20;99.90
19930;DHT22;10127;47.780;9.606;2022-12-07T11:07:22;6.30;99.90
19930;DHT22;10127;47.780;9.606;2022-12-07T11:18:24;6.10;99.90
19930;DHT22;10127;47.780;9.606;2022-12-07T11:24:19;6.40;99.90
19930;DHT22;10127;47.780;9.606;2022-12-07T11:27:15;6.40;99.90
19930;DHT22;10127;47.780;9.606;2022-12-07T11:38:45;6.40;99.90
19930;DHT22;10127;47.780;9.606;2022-12-07T11:41:12;6.40;99.90
19930;DHT22;10127;47.780;9.606;2022-12-07T11:44:26;6.50;99.90
19930;DHT22;10127;47.780;9.606;2022-12-07T11:49:37;6.70;99.90
19930;DHT22;10127;47.780;9.606;2022-12-07T11:54:50;6.30;99.90
19930;DHT22;10127;47.780;9.606;2022-12-07T11:57:30;6.30;99.90
19930;DHT22;10127;47.780;9.606;2022-12-07T12:00:03;6.30;99.90
19930;DHT22;10127;47.780;9.606;2022-12-07T12:02:49;6.40;99.90
19930;DHT22;10127;47.780;9.606;2022-12-07T12:05:18;6.50;99.90
19930;DHT22;10127;47.780;9.606;2022-12-07T12:07:58;6.40;99.90
19930;DHT22;10127;47.780;9.606;2022-12-07T12:10:42;6.40;99.90
19930;DHT22;10127;47.780;9.606;2022-12-07T12:18:59;6.30;99.90
19930;DHT22;10127;47.780;9.606;2022-12-07T12:21:29;6.20;99.90
19930;DHT22;10127;47.780;9.606;2022-12-07T12:24:14;6.20;99.90
19930;DHT22;10127;47.780;9.606;2022-12-07T12:26:52;6.20;99.90
19930;DHT22;10127;47.780;9.606;2022-12-07T12:29:30;6.10;99.90
19930;DHT22;10127;47.780;9.606;2022-12-07T12:32:16;6.10;99.90
19930;DHT22;10127;47.780;9.606;2022-12-07T12:34:58;6.10;99.90
19930;DHT22;10127;47.780;9.606;2022-12-07T12:42:56;6.30;99.90
19930;DHT22;10127;47.780;9.606;2022-12-07T12:45:32;6.40;99.90
19930;DHT22;10127;47.780;9.606;2022-12-07T12:48:02;6.20;99.90
19930;DHT22;10127;47.780;9.606;2022-12-07T12:50:35;6.20;99.90
19930;DHT22;10127;47.780;9.606;2022-12-07T12:53:23;6.30;99.90
19930;DHT22;10127;47.780;9.606;2022-12-07T12:58:32;6.30;99.90
19930;DHT22;10127;47.780;9.606;2022-12-07T13:01:50;6.30;99.90
19930;DHT22;10127;47.780;9.606;2022-12-07T13:04:23;6.20;99.90
19930;DHT22;10127;47.780;9.606;2022-12-07T13:06:49;6.30;99.90
19930;DHT22;10127;47.780;9.606;2022-12-07T13:09:27;6.30;99.90
19930;DHT22;10127;47.780;9.606;2022-12-07T13:12:01;6.20;99.90
19930;DHT22;10127;47.780;9.606;2022-12-07T13:14:51;6.30;99.90
19930;DHT22;10127;47.780;9.606;2022-12-07T13:20:01;6.40;99.90
19930;DHT22;10127;47.780;9.606;2022-12-07T13:24:57;6.60;99.90
19930;DHT22;10127;47.780;9.606;2022-12-07T13:27:25;6.70;99.90
19930;DHT22;10127;47.780;9.606;2022-12-07T13:29:51;6.80;99.90
19930;DHT22;10127;47.780;9.606;2022-12-07T13:32:28;6.80;99.90
19930;DHT22;10127;47.780;9.606;2022-12-07T13:34:55;6.70;99.90
19930;DHT22;10127;47.780;9.606;2022-12-07T13:37:25;6.60;99.90
19930;DHT22;10127;47.780;9.606;2022-12-07T13:39:57;6.50;99.90
19930;DHT22;10127;47.780;9.606;2022-12-07T13:42:29;6.40;99.90
19930;DHT22;10127;47.780;9.606;2022-12-07T13:44:56;6.30;99.90
19930;DHT22;10127;47.780;9.606;2022-12-07T13:47:36;6.40;99.90
19930;DHT22;10127;47.780;9.606;2022-12-07T13:50:20;6.30;99.90
19930;DHT22;10127;47.780;9.606;2022-12-07T13:52:47;6.40;99.90
19930;DHT22;10127;47.780;9.606;2022-12-07T13:55:16;6.40;99.90
19930;DHT22;10127;47.780;9.606;2022-12-07T13:57:44;6.40;99.90
19930;DHT22;10127;47.780;9.606;2022-12-07T14:00:22;6.40;99.90
19930;DHT22;10127;47.780;9.606;2022-12-07T14:05:37;6.30;99.90
19930;DHT22;10127;47.780;9.606;2022-12-07T14:08:05;6.30;99.90
19930;DHT22;10127;47.780;9.606;2022-12-07T14:13:33;6.10;99.90
19930;DHT22;10127;47.780;9.606;2022-12-07T14:16:01;6.20;99.90
19930;DHT22;10127;47.780;9.606;2022-12-07T14:18:39;6.20;99.90
19930;DHT22;10127;47.780;9.606;2022-12-07T14:21:20;6.10;99.90
19930;DHT22;10127;47.780;9.606;2022-12-07T14:24:08;6.10;99.90
19930;DHT22;10127;47.780;9.606;2022-12-07T14:26:34;6.00;99.90
19930;DHT22;10127;47.780;9.606;2022-12-07T14:31:51;5.90;99.90
19930;DHT22;10127;47.780;9.606;2022-12-07T14:34:20;6.00;99.90
19930;DHT22;10127;47.780;9.606;2022-12-07T14:36:45;6.00;99.90
19930;DHT22;10127;47.780;9.606;2022-12-07T14:39:11;6.00;99.90
19930;DHT22;10127;47.780;9.606;2022-12-07T14:41:36;5.90;99.90
19930;DHT22;10127;47.780;9.606;2022-12-07T14:44:19;6.10;99.90
19930;DHT22;10127;47.780;9.606;2022-12-07T14:46:46;6.30;99.90
19930;DHT22;10127;47.780;9.606;2022-12-07T14:49:11;6.30;99.90
19930;DHT22;10127;47.780;9.606;2022-12-07T14:51:39;6.40;99.90
19930;DHT22;10127;47.780;9.606;2022-12-07T14:54:09;6.40;99.90
19930;DHT22;10127;47.780;9.606;2022-12-07T14:56:37;6.30;99.90
19930;DHT22;10127;47.780;9.606;2022-12-07T14:59:03;6.10;99.90
19930;DHT22;10127;47.780;9.606;2022-12-07T15:01:28;6.00;99.90
19930;DHT22;10127;47.780;9.606;2022-12-07T15:03:54;6.00;99.90
19930;DHT22;10127;47.780;9.606;2022-12-07T15:06:19;5.80;99.90
19930;DHT22;10127;47.780;9.606;2022-12-07T15:08:45;5.70;99.90
19930;DHT22;10127;47.780;9.606;2022-12-07T15:11:16;5.50;99.90
19930;DHT22;10127;47.780;9.606;2022-12-07T15:13:42;5.60;99.90
19930;DHT22;10127;47.780;9.606;2022-12-07T15:16:26;5.50;99.90
19930;DHT22;10127;47.780;9.606;2022-12-07T15:18:52;5.50;99.90
19930;DHT22;10127;47.780;9.606;2022-12-07T15:21:17;5.50;99.90
19930;DHT22;10127;47.780;9.606;2022-12-07T15:23:43;5.40;99.90
19930;DHT22;10127;47.780;9.606;2022-12-07T15:26:11;5.30;99.90
19930;DHT22;10127;47.780;9.606;2022-12-07T15:28:36;5.40;99.90
19930;DHT22;10127;47.780;9.606;2022-12-07T15:31:02;5.30;99.90
19930;DHT22;10127;47.780;9.606;2022-12-07T15:33:28;5.30;99.90
19930;DHT22;10127;47.780;9.606;2022-12-07T15:35:53;5.30;99.90
19930;DHT22;10127;47.780;9.606;2022-12-07T15:38:19;5.20;99.90
19930;DHT22;10127;47.780;9.606;2022-12-07T15:40:48;5.20;99.90
19930;DHT22;10127;47.780;9.606;2022-12-07T15:43:13;5.10;99.90
19930;DHT22;10127;47.780;9.606;2022-12-07T15:45:57;5.20;99.90
19930;DHT22;10127;47.780;9.606;2022-12-07T15:48:24;5.20;99.90
19930;DHT22;10127;47.780;9.606;2022-12-07T15:50:50;5.20;99.90
19930;DHT22;10127;47.780;9.606;2022-12-07T15:53:16;5.10;99.90
19930;DHT22;10127;47.780;9.606;2022-12-07T15:55:41;5.10;99.90
19930;DHT22;10127;47.780;9.606;2022-12-07T15:58:07;5.00;99.90
19930;DHT22;10127;47.780;9.606;2022-12-07T16:00:33;5.00;99.90
19930;DHT22;10127;47.780;9.606;2022-12-07T16:02:58;5.00;99.90
19930;DHT22;10127;47.780;9.606;2022-12-07T16:05:24;5.00;99.90
19930;DHT22;10127;47.780;9.606;2022-12-07T16:07:50;5.00;99.90
19930;DHT22;10127;47.780;9.606;2022-12-07T16:10:15;5.00;99.90
19930;DHT22;10127;47.780;9.606;2022-12-07T16:12:41;4.90;99.90
19930;DHT22;10127;47.780;9.606;2022-12-07T16:15:07;4.80;99.90
19930;DHT22;10127;47.780;9.606;2022-12-07T16:17:32;4.80;99.90
19930;DHT22;10127;47.780;9.606;2022-12-07T16:19:58;4.80;99.90
19930;DHT22;10127;47.780;9.606;2022-12-07T16:22:24;4.90;99.90
19930;DHT22;10127;47.780;9.606;2022-12-07T16:24:49;4.80;99.90
19930;DHT22;10127;47.780;9.606;2022-12-07T16:27:15;4.80;99.90
19930;DHT22;10127;47.780;9.606;2022-12-07T16:29:41;4.90;99.90
19930;DHT22;10127;47.780;9.606;2022-12-07T16:32:07;4.80;99.90
19930;DHT22;10127;47.780;9.606;2022-12-07T16:34:32;4.80;99.90
19930;DHT22;10127;47.780;9.606;2022-12-07T16:36:58;4.80;99.90
19930;DHT22;10127;47.780;9.606;2022-12-07T16:39:23;4.70;99.90
19930;DHT22;10127;47.780;9.606;2022-12-07T16:41:50;4.70;99.90
19930;DHT22;10127;47.780;9.606;2022-12-07T16:44:16;4.70;99.90
19930;DHT22;10127;47.780;9.606;2022-12-07T16:46:42;4.70;99.90
19930;DHT22;10127;47.780;9.606;2022-12-07T16:49:12;4.60;99.90
19930;DHT22;10127;47.780;9.606;2022-12-07T16:51:38;4.80;99.90
19930;DHT22;10127;47.780;9.606;2022-12-07T16:54:04;4.70;99.90
19930;DHT22;10127;47.780;9.606;2022-12-07T16:56:30;4.70;99.90
19930;DHT22;10127;47.780;9.606;2022-12-07T16:58:58;4.70;99.90
19930;DHT22;10127;47.780;9.606;2022-12-07T17:01:24;4.60;99.90
19930;DHT22;10127;47.780;9.606;2022-12-07T17:03:49;4.50;99.90
19930;DHT22;10127;47.780;9.606;2022-12-07T17:06:21;4.60;99.90
19930;DHT22;10127;47.780;9.606;2022-12-07T17:08:47;4.70;99.90
19930;DHT22;10127;47.780;9.606;2022-12-07T17:11:16;4.80;99.90
19930;DHT22;10127;47.780;9.606;2022-12-07T17:13:41;4.80;99.90
19930;DHT22;10127;47.780;9.606;2022-12-07T17:16:26;4.90;99.90
19930;DHT22;10127;47.780;9.606;2022-12-07T17:18:52;5.00;99.90
19930;DHT22;10127;47.780;9.606;2022-12-07T17:21:18;4.80;99.90
19930;DHT22;10127;47.780;9.606;2022-12-07T17:23:45;4.60;99.90
19930;DHT22;10127;47.780;9.606;2022-12-07T17:26:15;4.50;99.90
19930;DHT22;10127;47.780;9.606;2022-12-07T17:28:41;4.50;99.90
19930;DHT22;10127;47.780;9.606;2022-12-07T17:31:09;4.40;99.90
19930;DHT22;10127;47.780;9.606;2022-12-07T17:33:36;4.40;99.90
19930;DHT22;10127;47.780;9.606;2022-12-07T17:36:09;4.50;99.90
19930;DHT22;10127;47.780;9.606;2022-12-07T17:38:35;4.60;99.90
19930;DHT22;10127;47.780;9.606;2022-12-07T17:41:08;4.70;99.90
19930;DHT22;10127;47.780;9.606;2022-12-07T17:43:34;4.60;99.90
19930;DHT22;10127;47.780;9.606;2022-12-07T17:46:06;4.50;99.90
19930;DHT22;10127;47.780;9.606;2022-12-07T17:48:31;4.60;99.90
19930;DHT22;10127;47.780;9.606;2022-12-07T17:51:00;4.60;99.90
19930;DHT22;10127;47.780;9.606;2022-12-07T17:53:49;4.60;99.90